createdAt,value
2022-12-19T00:09:33.249Z,102661.00
2022-12-19T00:19:57.045Z,102663.00
2022-12-19T00:30:20.321Z,102657.00
2022-12-19T00:40:41.639Z,102660.00
2022-12-19T00:51:06.774Z,102652.00
2022-12-19T01:01:31.769Z,102641.00
2022-12-19T01:12:11.871Z,102626.00
2022-12-19T01:22:33.572Z,102588.00
2022-12-19T01:32:57.333Z,102581.00
2022-12-19T01:43:21.642Z,102527.00
2022-12-19T01:53:50.249Z,102497.00
2022-12-19T02:04:12.836Z,102497.00
2022-12-19T02:14:36.419Z,102480.00
2022-12-19T02:25:23.575Z,102463.00
2022-12-19T02:35:54.432Z,102473.00
2022-12-19T02:46:18.044Z,102462.00
2022-12-19T02:56:51.224Z,102457.00
2022-12-19T03:07:21.210Z,102458.00
2022-12-19T03:17:44.811Z,102461.00
2022-12-19T03:28:12.904Z,102442.00
2022-12-19T03:38:39.727Z,102439.00
2022-12-19T03:49:01.265Z,102447.00
2022-12-19T03:59:31.840Z,102431.00
2022-12-19T04:09:56.909Z,102431.00
2022-12-19T04:20:22.136Z,102419.00
2022-12-19T04:30:46.044Z,102416.00
2022-12-19T04:41:16.744Z,102439.00
2022-12-19T04:51:38.265Z,102420.00
2022-12-19T05:02:01.553Z,102408.00
2022-12-19T05:12:23.734Z,102384.00
2022-12-19T05:22:46.959Z,102384.00
2022-12-19T05:33:08.774Z,102402.00
2022-12-19T05:43:31.842Z,102388.00
2022-12-19T05:53:53.626Z,102371.00
2022-12-19T06:04:16.596Z,102364.00
2022-12-19T06:14:38.338Z,102359.00
2022-12-19T06:25:01.860Z,102329.00
2022-12-19T06:35:23.539Z,102311.00
2022-12-19T06:45:46.287Z,102293.00
2022-12-19T06:56:08.601Z,102311.00
2022-12-19T07:06:31.681Z,102322.00
2022-12-19T07:16:55.011Z,102335.00
2022-12-19T07:27:18.319Z,102319.00
2022-12-19T07:37:40.105Z,102323.00
2022-12-19T07:48:04.197Z,102319.00
2022-12-19T07:58:26.805Z,102315.00
2022-12-19T08:08:49.763Z,102302.00
2022-12-19T08:19:11.555Z,102301.00
2022-12-19T08:29:35.061Z,102272.00
2022-12-19T08:39:56.594Z,102273.00
2022-12-19T08:50:19.881Z,102265.00
2022-12-19T09:00:41.319Z,102246.00
2022-12-19T09:11:06.477Z,102228.00
2022-12-19T09:21:30.172Z,102211.00
2022-12-19T09:31:56.385Z,102188.00
2022-12-19T09:42:41.252Z,102175.00
2022-12-19T09:53:17.072Z,102158.00
2022-12-19T10:03:42.626Z,102149.00
2022-12-19T10:14:23.693Z,102127.00
2022-12-19T10:25:08.043Z,102126.00
2022-12-19T10:35:35.716Z,102091.00
2022-12-19T10:46:03.330Z,102087.00
2022-12-19T10:56:36.882Z,102061.00
2022-12-19T11:07:07.738Z,102045.00
2022-12-19T11:27:29.555Z,102030.00
2022-12-19T11:29:37.686Z,102017.00
2022-12-19T11:39:12.103Z,101999.00
2022-12-19T11:49:39.675Z,101988.00
2022-12-19T12:00:05.722Z,101976.00
2022-12-19T12:16:14.788Z,101968.00
2022-12-19T12:31:18.800Z,101972.00
2022-12-19T12:35:10.978Z,101952.00
2022-12-19T12:43:09.784Z,101947.00
2022-12-19T12:53:35.139Z,101940.00
2022-12-19T13:04:05.601Z,101933.00
2022-12-19T13:14:46.865Z,101930.00
2022-12-19T13:25:50.982Z,101916.00
2022-12-19T13:39:51.641Z,101903.00
2022-12-19T13:47:34.790Z,101903.00
2022-12-19T13:57:57.521Z,101869.00
2022-12-19T14:08:22.831Z,101856.00
2022-12-19T14:18:49.568Z,101858.00
2022-12-19T14:29:17.366Z,101854.00
2022-12-19T14:39:58.494Z,101849.00
2022-12-19T14:54:09.566Z,101858.00
2022-12-19T15:01:24.264Z,101850.00
2022-12-19T15:14:47.699Z,101834.00
2022-12-19T15:22:55.200Z,101834.00
2022-12-19T15:33:18.539Z,101834.00
2022-12-19T15:44:03.219Z,101834.00
2022-12-19T15:54:48.697Z,101823.00
2022-12-19T16:05:05.414Z,101823.00
2022-12-19T16:15:30.961Z,101818.00
2022-12-19T16:25:53.094Z,101810.00
2022-12-19T16:36:16.381Z,101795.00
2022-12-19T16:46:38.508Z,101790.00
2022-12-19T16:57:02.919Z,101807.00
2022-12-19T17:07:24.539Z,101803.00
2022-12-19T17:17:48.619Z,101795.00
2022-12-19T17:28:10.655Z,101791.00
2022-12-19T17:38:34.848Z,101783.00
2022-12-19T17:48:56.800Z,101783.00
2022-12-19T17:59:20.958Z,101775.00
2022-12-19T18:09:42.461Z,101777.00
2022-12-19T18:20:31.477Z,101789.00
2022-12-19T18:30:59.291Z,101776.00
2022-12-19T18:41:22.824Z,101769.00
2022-12-19T18:51:45.657Z,101780.00
2022-12-19T19:02:25.599Z,101763.00
2022-12-19T19:12:48.657Z,101760.00
2022-12-19T19:23:16.288Z,101743.00
2022-12-19T19:33:41.265Z,101730.00
2022-12-19T19:44:05.295Z,101727.00
2022-12-19T19:54:28.165Z,101741.00
2022-12-19T20:04:52.383Z,101735.00
2022-12-19T20:15:14.415Z,101715.00
2022-12-19T20:25:39.863Z,101715.00
2022-12-19T20:36:06.919Z,101708.00
2022-12-19T20:46:29.885Z,101708.00
2022-12-19T20:56:51.724Z,101698.00
2022-12-19T21:07:15.012Z,101721.00
2022-12-19T21:17:37.447Z,101707.00
2022-12-19T21:28:00.946Z,101719.00
2022-12-19T21:38:28.443Z,101715.00
2022-12-19T21:48:54.796Z,101706.00
2022-12-19T21:59:18.965Z,101698.00
2022-12-19T22:09:43.427Z,101719.00
2022-12-19T22:20:05.460Z,101705.00
2022-12-19T22:30:28.633Z,101713.00
2022-12-19T22:40:50.248Z,101704.00
2022-12-19T22:51:14.900Z,101688.00
2022-12-19T23:01:38.580Z,101682.00
2022-12-19T23:12:01.805Z,101674.00
2022-12-19T23:22:23.641Z,101683.00
2022-12-19T23:32:50.938Z,101673.00
2022-12-19T23:43:13.191Z,101683.00
2022-12-19T23:53:36.641Z,101674.00
